Time;durP1;ratioP1;P1;durP2;ratioP2;P2;SDS_P1;SDS_P2;PMS_P1;PMS_P2;Temp;Humidity;BMP_temperature;BMP_pressure;BME280_temperature;BME280_humidity;BME280_pressure;Samples;Min_cycle;Max_cycle;Signal;HPM_P1;HPM_P2
2022/06/03 00:01:28;;;;;;;5.65;3.20;;;11.40;99.90;;;;;;5027373;28;20166;-72
2022/06/03 00:04:12;;;;;;;7.30;3.80;;;11.40;99.90;;;;;;5028645;28;20077;-72
2022/06/03 00:07:06;;;;;;;7.35;3.47;;;11.40;99.90;;;;;;5032952;28;20038;-72
2022/06/03 00:10:00;;;;;;;5.80;3.63;;;11.40;99.90;;;;;;5025584;28;20076;-72
2022/06/03 00:12:38;;;;;;;5.60;3.80;;;11.40;99.90;;;;;;5020838;28;20041;-72
2022/06/03 00:15:16;;;;;;;5.72;3.47;;;11.30;99.90;;;;;;5030718;28;20063;-72
2022/06/03 00:18:28;;;;;;;5.80;3.67;;;11.30;99.90;;;;;;5028483;28;20041;-72
2022/06/03 00:21:07;;;;;;;4.30;3.60;;;11.30;99.90;;;;;;5041716;28;20087;-72
2022/06/03 00:23:45;;;;;;;6.43;3.47;;;11.30;99.90;;;;;;5032458;28;20108;-72
2022/06/03 00:26:32;;;;;;;7.20;3.63;;;11.30;99.90;;;;;;5029267;28;20033;-72
2022/06/03 00:29:34;;;;;;;6.65;3.42;;;11.20;99.90;;;;;;5020849;28;20053;-72
2022/06/03 00:32:25;;;;;;;7.45;3.90;;;11.20;99.90;;;;;;5044438;28;20041;-72
2022/06/03 00:34:51;;;;;;;4.20;3.30;;;11.20;99.90;;;;;;5028806;28;20045;-72
2022/06/03 00:37:47;;;;;;;9.73;4.03;;;11.20;99.90;;;;;;5032610;28;20530;-72
2022/06/03 00:40:40;;;;;;;10.25;3.70;;;11.20;99.90;;;;;;5026000;28;20033;-72
2022/06/03 00:43:42;;;;;;;4.07;3.60;;;11.10;99.90;;;;;;5027870;28;20034;-72
2022/06/03 00:46:22;;;;;;;6.10;3.47;;;11.10;99.90;;;;;;5028237;28;20056;-72
2022/06/03 00:48:48;;;;;;;5.93;4.22;;;11.00;99.90;;;;;;5026629;28;20044;-72
2022/06/03 00:51:20;;;;;;;8.30;4.38;;;11.00;99.90;;;;;;5025299;28;20041;-72
2022/06/03 00:53:55;;;;;;;6.00;3.97;;;10.90;99.90;;;;;;5028090;28;20124;-72
2022/06/03 00:56:23;;;;;;;5.82;4.20;;;10.90;99.90;;;;;;5031160;28;20042;-72
2022/06/03 00:59:10;;;;;;;8.05;4.43;;;10.90;99.90;;;;;;5026923;28;20087;-72
2022/06/03 01:02:10;;;;;;;7.32;4.43;;;10.80;99.90;;;;;;5006190;28;20030;-72
2022/06/03 01:04:47;;;;;;;8.32;4.75;;;10.80;99.90;;;;;;5029354;28;20034;-72
2022/06/03 01:07:25;;;;;;;7.57;4.85;;;10.80;99.90;;;;;;5026420;28;20049;-72
2022/06/03 01:10:12;;;;;;;4.90;4.40;;;10.70;99.90;;;;;;5021514;28;20140;-72
2022/06/03 01:13:12;;;;;;;8.45;4.75;;;10.70;99.90;;;;;;5030185;28;20075;-72
2022/06/03 01:16:01;;;;;;;4.95;4.28;;;10.70;99.90;;;;;;5028312;28;20120;-72
2022/06/03 01:18:49;;;;;;;9.68;4.55;;;10.70;99.90;;;;;;5028550;28;20044;-72
2022/06/03 01:22:00;;;;;;;8.20;4.65;;;10.70;99.90;;;;;;5032037;28;20074;-72
2022/06/03 01:24:41;;;;;;;5.75;4.55;;;10.60;99.90;;;;;;5024981;28;20053;-72
2022/06/03 01:27:32;;;;;;;6.70;4.55;;;10.60;99.90;;;;;;5029951;28;20168;-72
2022/06/03 01:30:09;;;;;;;7.53;5.05;;;10.60;99.90;;;;;;5034954;28;20095;-72
2022/06/03 01:33:08;;;;;;;7.82;4.22;;;10.60;99.90;;;;;;5032117;28;20038;-72
2022/06/03 01:35:57;;;;;;;5.22;4.63;;;10.60;99.90;;;;;;5029515;28;20075;-72
2022/06/03 01:38:44;;;;;;;6.97;4.63;;;10.60;99.90;;;;;;5028596;28;20038;-72
2022/06/03 01:41:39;;;;;;;5.97;4.65;;;10.50;99.90;;;;;;5013029;28;20069;-72
2022/06/03 01:44:35;;;;;;;5.97;4.85;;;10.50;99.90;;;;;;5028398;28;20038;-72
2022/06/03 01:47:16;;;;;;;7.65;4.82;;;10.50;99.90;;;;;;5025463;28;20082;-72
2022/06/03 01:50:27;;;;;;;8.38;4.40;;;10.40;99.90;;;;;;5026967;28;20037;-72
2022/06/03 01:53:04;;;;;;;8.95;5.00;;;10.40;99.90;;;;;;4997606;28;20046;-72
2022/06/03 01:55:48;;;;;;;10.32;5.00;;;10.40;99.90;;;;;;5030675;28;20497;-72
2022/06/03 01:58:30;;;;;;;8.20;5.05;;;10.30;99.90;;;;;;5009103;28;20052;-72
2022/06/03 02:01:30;;;;;;;12.10;5.40;;;10.30;99.90;;;;;;5025959;28;20041;-71
2022/06/03 02:04:05;;;;;;;7.05;5.13;;;10.30;99.90;;;;;;5026637;28;20033;-71
2022/06/03 02:06:52;;;;;;;5.85;5.25;;;10.20;99.90;;;;;;5026151;28;20041;-72
2022/06/03 02:09:50;;;;;;;8.50;5.18;;;10.20;99.90;;;;;;5029629;28;20132;-72
2022/06/03 02:12:54;;;;;;;11.73;5.60;;;10.20;99.90;;;;;;5025945;28;20041;-72
2022/06/03 02:15:50;;;;;;;6.13;5.20;;;10.30;99.90;;;;;;5027326;28;20045;-72
2022/06/03 02:18:40;;;;;;;10.73;5.15;;;10.20;99.90;;;;;;5028030;28;20041;-72
2022/06/03 02:21:25;;;;;;;8.27;5.20;;;10.20;99.90;;;;;;5029576;28;20044;-72
2022/06/03 02:24:29;;;;;;;7.85;5.80;;;10.20;99.90;;;;;;5027483;28;20042;-72
2022/06/03 02:27:29;;;;;;;6.63;5.20;;;10.20;99.90;;;;;;4969741;28;20059;-72
2022/06/03 02:30:25;;;;;;;9.50;5.72;;;10.10;99.90;;;;;;4964865;28;20058;-72
2022/06/03 02:33:40;;;;;;;7.20;5.63;;;10.10;99.90;;;;;;5035031;28;20061;-72
2022/06/03 02:36:33;;;;;;;6.10;5.50;;;10.10;99.90;;;;;;5030195;28;20080;-72
2022/06/03 02:39:36;;;;;;;6.65;5.40;;;10.10;99.90;;;;;;5025250;28;20048;-72
2022/06/03 02:42:20;;;;;;;6.70;5.60;;;10.10;99.90;;;;;;5028649;28;20038;-72
2022/06/03 02:45:14;;;;;;;7.70;5.78;;;10.00;99.90;;;;;;5025674;28;20096;-72
2022/06/03 02:47:49;;;;;;;7.00;5.90;;;10.00;99.90;;;;;;5024815;28;20045;-72
2022/06/03 02:50:40;;;;;;;11.98;6.30;;;10.00;99.90;;;;;;5044101;28;20060;-72
2022/06/03 02:53:47;;;;;;;10.48;6.35;;;9.90;99.90;;;;;;5029360;28;20044;-72
2022/06/03 02:56:32;;;;;;;7.35;5.85;;;9.90;99.90;;;;;;5033086;28;20045;-72
2022/06/03 02:59:19;;;;;;;6.80;6.10;;;9.90;99.90;;;;;;5031430;28;20095;-72
2022/06/03 03:01:48;;;;;;;8.05;6.13;;;9.90;99.90;;;;;;5028820;28;20037;-72
2022/06/03 03:04:31;;;;;;;8.15;6.10;;;9.90;99.90;;;;;;5030667;28;20045;-72
2022/06/03 03:07:28;;;;;;;8.65;6.47;;;9.80;99.90;;;;;;5028623;28;20518;-72
2022/06/03 03:10:27;;;;;;;7.75;6.78;;;9.80;99.90;;;;;;5030547;28;20060;-72
2022/06/03 03:13:29;;;;;;;11.93;6.90;;;9.80;99.90;;;;;;5033389;28;20041;-72
2022/06/03 03:16:17;;;;;;;9.43;7.40;;;9.80;99.90;;;;;;5033424;28;20053;-72
2022/06/03 03:18:42;;;;;;;9.48;6.93;;;9.80;99.90;;;;;;5021394;28;20516;-72
2022/06/03 03:21:23;;;;;;;13.70;7.53;;;9.80;99.90;;;;;;5028832;28;20076;-72
2022/06/03 03:24:10;;;;;;;11.75;7.43;;;9.80;99.90;;;;;;5032256;28;20045;-72
2022/06/03 03:27:00;;;;;;;8.70;7.32;;;9.80;99.90;;;;;;5026942;28;20092;-72
2022/06/03 03:29:39;;;;;;;9.57;7.45;;;9.70;99.90;;;;;;5049783;28;20049;-72
2022/06/03 03:32:28;;;;;;;10.07;7.72;;;9.80;99.90;;;;;;5032650;28;20044;-72
2022/06/03 03:34:54;;;;;;;10.43;7.38;;;9.80;99.90;;;;;;5023858;28;20080;-71
2022/06/03 03:37:56;;;;;;;14.18;9.02;;;9.80;99.90;;;;;;5027548;28;20128;-72
2022/06/03 03:40:52;;;;;;;12.63;8.15;;;9.80;99.90;;;;;;5029687;28;20037;-72
2022/06/03 03:43:26;;;;;;;10.75;8.55;;;9.80;99.90;;;;;;5027128;28;20045;-72
2022/06/03 03:46:45;;;;;;;8.50;7.60;;;9.80;99.90;;;;;;5032969;28;20080;-72
2022/06/03 03:49:39;;;;;;;10.32;8.10;;;9.80;99.90;;;;;;5028394;28;20068;-72
2022/06/03 03:52:35;;;;;;;13.93;8.52;;;9.80;99.90;;;;;;5028097;28;20042;-72
2022/06/03 03:55:30;;;;;;;12.10;7.93;;;9.80;99.90;;;;;;5027043;28;20033;-71
2022/06/03 03:57:56;;;;;;;9.20;8.13;;;9.80;99.90;;;;;;5013403;28;20060;-72
2022/06/03 04:00:40;;;;;;;11.65;8.43;;;9.80;99.90;;;;;;5013976;28;20046;-72
2022/06/03 04:03:40;;;;;;;10.35;8.35;;;9.90;99.90;;;;;;5028261;28;20045;-72
2022/06/03 04:06:36;;;;;;;12.85;8.75;;;9.90;99.90;;;;;;5027379;28;20053;-72
2022/06/03 04:09:41;;;;;;;10.48;8.60;;;9.90;99.90;;;;;;5029409;28;20127;-72
2022/06/03 04:12:18;;;;;;;9.52;8.52;;;10.00;99.90;;;;;;5031476;28;20064;-72
2022/06/03 04:15:21;;;;;;;11.73;9.02;;;10.00;99.90;;;;;;5025285;28;20037;-72
2022/06/03 04:17:56;;;;;;;;;;;10.10;99.90;;;;;;5028705;28;20045;-72
2022/06/03 04:20:51;;;;;;;16.23;8.50;;;10.10;99.90;;;;;;5015357;28;19917;-72
2022/06/03 04:23:38;;;;;;;11.63;8.82;;;10.10;99.90;;;;;;5029909;28;20061;-72
2022/06/03 04:26:25;;;;;;;13.43;8.60;;;10.20;99.90;;;;;;5029146;28;20056;-72
2022/06/03 04:29:34;;;;;;;15.25;8.43;;;10.20;99.90;;;;;;5030224;28;20637;-72
2022/06/03 04:32:38;;;;;;;11.82;8.52;;;10.20;99.90;;;;;;5018601;28;20045;-72
2022/06/03 04:35:22;;;;;;;;;;;10.30;99.90;;;;;;5030538;28;20037;-72
2022/06/03 04:38:26;;;;;;;13.27;8.32;;;10.30;99.90;;;;;;5031677;28;19979;-72
2022/06/03 04:41:26;;;;;;;11.75;8.25;;;10.30;99.90;;;;;;5026958;28;20121;-72
2022/06/03 04:44:28;;;;;;;12.82;8.73;;;10.40;99.90;;;;;;5029021;28;20479;-72
2022/06/03 04:47:25;;;;;;;14.13;8.27;;;10.40;99.90;;;;;;5031366;28;20045;-72
2022/06/03 04:50:26;;;;;;;12.57;8.23;;;10.50;99.90;;;;;;5028607;28;20049;-72
2022/06/03 04:53:24;;;;;;;13.32;8.02;;;10.50;99.90;;;;;;5028508;28;20033;-72
2022/06/03 04:55:52;;;;;;;12.60;8.25;;;10.60;99.90;;;;;;5026405;28;20041;-72
2022/06/03 04:58:51;;;;;;;12.50;8.40;;;10.60;99.90;;;;;;5030542;28;20041;-72
2022/06/03 05:01:50;;;;;;;10.10;8.00;;;10.70;99.90;;;;;;5029053;28;20075;-72
2022/06/03 05:04:53;;;;;;;18.30;8.40;;;10.70;99.90;;;;;;5027716;28;20087;-72
2022/06/03 05:07:28;;;;;;;;;;;10.80;99.90;;;;;;5023143;28;20042;-72
2022/06/03 05:10:31;;;;;;;11.40;8.75;;;10.80;99.90;;;;;;5027584;28;20379;-72
2022/06/03 05:13:35;;;;;;;11.18;7.85;;;10.90;99.90;;;;;;5027461;28;20052;-72
2022/06/03 05:16:38;;;;;;;10.45;7.80;;;11.00;99.90;;;;;;5029173;28;20056;-72
2022/06/03 05:19:33;;;;;;;13.85;8.38;;;11.00;99.90;;;;;;5030758;28;20052;-72
2022/06/03 05:22:07;;;;;;;13.10;8.32;;;11.10;99.90;;;;;;5029079;28;20069;-72
2022/06/03 05:24:33;;;;;;;13.77;8.20;;;11.20;99.90;;;;;;5030115;28;20038;-72
2022/06/03 05:27:17;;;;;;;12.88;8.00;;;11.20;99.90;;;;;;5030955;28;20029;-72
2022/06/03 05:29:48;;;;;;;12.30;8.45;;;11.40;99.90;;;;;;5021118;28;20602;-72
2022/06/03 05:32:51;;;;;;;9.73;7.70;;;11.40;99.90;;;;;;5029550;28;20052;-72
2022/06/03 05:35:27;;;;;;;11.82;8.00;;;11.50;99.90;;;;;;5010421;28;20113;-72
2022/06/03 05:38:15;;;;;;;11.40;8.07;;;11.60;99.90;;;;;;5028649;28;20476;-72
2022/06/03 05:44:54;;;;;;;10.25;6.75;;;11.70;99.90;;;;;;4946632;29;20039;-72
2022/06/03 05:47:28;;;;;;;10.52;7.00;;;11.80;99.90;;;;;;4933793;29;20055;-71
2022/06/03 05:50:03;;;;;;;10.82;6.93;;;11.90;99.90;;;;;;5026670;28;20083;-72
2022/06/03 05:53:07;;;;;;;13.35;7.22;;;12.00;99.90;;;;;;5031014;28;20072;-71
2022/06/03 05:56:09;;;;;;;9.85;6.53;;;12.10;99.90;;;;;;5023743;28;20042;-72
2022/06/03 05:59:12;;;;;;;9.05;6.78;;;12.20;99.90;;;;;;5030904;28;20041;-72
2022/06/03 06:01:46;;;;;;;8.70;6.37;;;12.30;99.90;;;;;;5021001;28;20084;-72
2022/06/03 06:04:24;;;;;;;7.80;6.60;;;12.40;99.90;;;;;;5015075;28;20045;-72
2022/06/03 06:07:17;;;;;;;7.18;5.55;;;12.50;99.90;;;;;;5026019;28;20046;-72
2022/06/03 06:09:58;;;;;;;9.32;5.70;;;12.60;99.90;;;;;;5027503;28;20128;-72
2022/06/03 06:12:39;;;;;;;8.80;5.97;;;12.70;99.90;;;;;;5022298;28;20050;-72
2022/06/03 06:15:33;;;;;;;9.55;5.65;;;12.80;99.90;;;;;;5025314;28;20103;-72
2022/06/03 06:17:58;;;;;;;8.52;5.88;;;12.90;99.90;;;;;;5024300;28;20037;-72
2022/06/03 06:20:58;;;;;;;7.70;5.43;;;13.00;99.90;;;;;;5026456;28;20055;-72
2022/06/03 06:23:42;;;;;;;9.77;5.30;;;13.10;99.90;;;;;;5017711;28;20392;-72
2022/06/03 06:26:29;;;;;;;8.20;5.00;;;13.10;99.90;;;;;;5020189;28;20109;-72
2022/06/03 06:29:38;;;;;;;8.52;5.22;;;13.30;99.90;;;;;;5019963;28;20064;-72
2022/06/03 06:32:43;;;;;;;9.02;4.80;;;13.40;99.90;;;;;;5025231;28;20415;-72
2022/06/03 06:35:51;;;;;;;6.80;4.55;;;13.60;99.90;;;;;;5026830;28;20056;-72
2022/06/03 06:38:30;;;;;;;6.00;4.22;;;13.80;99.90;;;;;;5016408;28;20115;-72
2022/06/03 06:41:20;;;;;;;6.38;4.50;;;13.90;99.90;;;;;;5034539;28;20037;-72
2022/06/03 06:43:56;;;;;;;6.57;4.50;;;14.00;99.90;;;;;;5021880;28;20126;-72
2022/06/03 06:46:57;;;;;;;8.25;4.68;;;14.20;99.90;;;;;;5026011;28;20045;-72
2022/06/03 06:49:28;;;;;;;5.47;3.92;;;14.30;99.90;;;;;;5025426;28;20037;-72
2022/06/03 06:52:16;;;;;;;6.07;3.92;;;14.60;99.90;;;;;;5026842;28;20053;-72
2022/06/03 06:55:06;;;;;;;8.18;4.40;;;14.70;99.90;;;;;;5025483;28;20060;-72
2022/06/03 06:57:34;;;;;;;5.45;3.97;;;14.80;99.90;;;;;;5027203;28;20508;-72
2022/06/03 07:00:09;;;;;;;5.55;3.83;;;15.00;99.90;;;;;;5028198;28;20842;-72
2022/06/03 07:02:46;;;;;;;6.22;4.18;;;15.10;99.90;;;;;;5029447;28;20029;-72
2022/06/03 07:05:35;;;;;;;6.82;4.00;;;15.30;99.90;;;;;;5027156;28;20095;-73
2022/06/03 07:08:24;;;;;;;6.80;4.00;;;15.40;99.90;;;;;;5024845;28;20539;-73
2022/06/03 07:10:53;;;;;;;5.70;3.78;;;15.60;99.90;;;;;;5026881;28;20053;-73
2022/06/03 07:13:23;;;;;;;6.70;4.03;;;15.70;99.90;;;;;;5028782;28;20106;-73
2022/06/03 07:19:47;;;;;;;5.50;3.50;;;15.80;99.90;;;;;;5028026;28;20049;-72
2022/06/03 07:19:48;;;;;;;6.43;3.70;;;15.90;99.90;;;;;;5025027;28;20048;-73
2022/06/03 07:22:21;;;;;;;5.60;3.80;;;16.10;99.90;;;;;;5028315;28;20051;-72
2022/06/03 07:24:57;;;;;;;5.65;3.53;;;16.30;99.90;;;;;;5027649;28;20033;-72
2022/06/03 07:27:48;;;;;;;6.07;3.78;;;16.40;99.90;;;;;;5013362;28;20044;-72
2022/06/03 07:30:20;;;;;;;9.07;4.10;;;16.50;99.90;;;;;;4984691;28;20049;-73
2022/06/03 07:32:51;;;;;;;;;;;16.60;99.90;;;;;;5030473;28;20037;-73
2022/06/03 07:35:34;;;;;;;8.35;4.18;;;16.70;99.90;;;;;;5034130;28;19917;-72
2022/06/03 07:38:03;;;;;;;;;;;16.90;99.90;;;;;;5015885;28;20041;-72
2022/06/03 07:40:42;;;;;;;6.43;3.75;;;17.00;99.90;;;;;;5030495;28;19921;-73
2022/06/03 07:43:36;;;;;;;4.93;3.50;;;17.10;99.90;;;;;;5030590;28;20454;-73
2022/06/03 07:46:14;;;;;;;4.40;3.35;;;17.30;99.90;;;;;;5013397;28;20412;-73
2022/06/03 07:48:41;;;;;;;7.72;3.70;;;17.50;99.90;;;;;;5027336;28;20120;-73
2022/06/03 07:51:20;;;;;;;5.63;3.47;;;17.60;99.90;;;;;;5027169;28;20057;-73
2022/06/03 07:53:52;;;;;;;4.30;3.00;;;17.60;99.90;;;;;;5021603;28;20052;-73
2022/06/03 07:56:28;;;;;;;6.83;3.43;;;17.70;99.90;;;;;;5026829;28;20049;-72
2022/06/03 07:59:00;;;;;;;6.32;3.40;;;17.80;99.90;;;;;;5013769;28;20383;-73
2022/06/03 08:01:33;;;;;;;5.40;3.50;;;18.00;99.90;;;;;;5026255;28;21081;-73
2022/06/03 08:03:59;;;;;;;8.30;4.25;;;18.20;99.90;;;;;;5032801;28;20507;-73
2022/06/03 08:12:24;;;;;;;4.18;3.05;;;18.50;99.90;;;;;;5032861;28;20049;-73
2022/06/03 08:14:50;;;;;;;4.57;3.40;;;18.60;99.90;;;;;;5028687;28;20853;-72
2022/06/03 08:17:18;;;;;;;5.72;3.70;;;18.70;99.90;;;;;;5025335;28;20128;-72
2022/06/03 08:19:44;;;;;;;4.70;3.10;;;18.90;99.90;;;;;;5011008;28;20555;-73
2022/06/03 08:22:13;;;;;;;4.97;3.67;;;19.00;99.90;;;;;;5013029;28;20033;-73
2022/06/03 08:24:47;;;;;;;6.40;3.38;;;19.10;99.90;;;;;;5000120;28;20100;-72
2022/06/03 08:27:20;;;;;;;5.47;3.70;;;19.30;99.90;;;;;;5031844;28;20110;-73
2022/06/03 08:29:57;;;;;;;6.60;3.33;;;19.30;99.90;;;;;;5028374;28;20055;-73
2022/06/03 08:32:31;;;;;;;4.82;3.47;;;19.50;99.90;;;;;;5014810;28;20394;-72
2022/06/03 08:35:00;;;;;;;5.60;3.80;;;19.60;99.40;;;;;;5028978;28;20048;-72
2022/06/03 08:37:42;;;;;;;6.10;3.63;;;19.70;97.60;;;;;;5031925;28;20056;-72
2022/06/03 08:40:19;;;;;;;7.90;3.45;;;19.70;95.80;;;;;;5032350;28;20447;-72
2022/06/03 08:42:55;;;;;;;5.53;3.40;;;19.80;98.70;;;;;;5026267;28;20068;-73
2022/06/03 08:45:31;;;;;;;6.72;3.80;;;19.90;98.40;;;;;;5026454;28;20373;-72
2022/06/03 08:47:59;;;;;;;5.38;3.70;;;20.00;97.60;;;;;;5030368;28;20443;-73
2022/06/03 08:50:28;;;;;;;5.30;3.60;;;20.10;99.30;;;;;;5028837;28;20638;-73
2022/06/03 08:53:08;;;;;;;5.07;3.42;;;20.20;96.70;;;;;;5025613;28;20123;-73
2022/06/03 08:55:37;;;;;;;8.50;3.20;;;20.30;94.50;;;;;;5044909;28;20458;-73
2022/06/03 08:58:18;;;;;;;6.07;3.95;;;20.40;95.50;;;;;;5032157;28;20424;-72
2022/06/03 09:01:11;;;;;;;5.18;3.20;;;20.50;95.70;;;;;;5030863;28;20454;-73
2022/06/03 09:04:17;;;;;;;5.43;3.30;;;20.60;95.00;;;;;;5031422;28;20052;-73
2022/06/03 09:06:46;;;;;;;8.70;3.20;;;20.80;95.60;;;;;;5015827;28;20393;-73
2022/06/03 09:09:25;;;;;;;5.60;3.20;;;21.00;95.80;;;;;;5031461;28;20037;-73
2022/06/03 09:12:03;;;;;;;6.03;3.05;;;21.10;91.70;;;;;;5030577;28;20803;-73
2022/06/03 09:14:29;;;;;;;4.05;2.92;;;21.20;90.10;;;;;;5030293;28;20065;-73
2022/06/03 09:17:03;;;;;;;6.93;3.00;;;21.30;89.80;;;;;;5031804;28;20541;-73
2022/06/03 09:19:39;;;;;;;5.35;3.10;;;21.40;90.20;;;;;;5028957;28;20495;-73
2022/06/03 09:22:12;;;;;;;3.42;2.50;;;21.60;86.60;;;;;;5024417;28;20029;-72
2022/06/03 09:24:41;;;;;;;6.13;2.97;;;21.80;81.40;;;;;;5030393;28;20660;-73
2022/06/03 09:27:10;;;;;;;5.97;3.30;;;21.80;79.60;;;;;;5028200;28;20453;-73
2022/06/03 09:29:37;;;;;;;4.45;3.00;;;21.90;81.10;;;;;;5029010;28;20095;-73
2022/06/03 09:32:06;;;;;;;4.80;3.00;;;22.00;75.80;;;;;;5028957;28;20041;-72
2022/06/03 09:34:42;;;;;;;6.97;3.47;;;22.10;73.50;;;;;;5030724;28;20041;-73
2022/06/03 09:37:12;;;;;;;4.75;3.05;;;22.10;73.10;;;;;;5030949;28;20463;-73
2022/06/03 09:39:39;;;;;;;4.80;2.60;;;22.20;76.60;;;;;;5027013;28;20164;-73
2022/06/03 09:42:05;;;;;;;5.43;2.30;;;22.30;75.80;;;;;;5027053;28;20041;-73
2022/06/03 09:44:32;;;;;;;5.35;2.80;;;22.30;72.90;;;;;;5028041;28;20041;-72
2022/06/03 09:47:02;;;;;;;4.18;2.72;;;22.40;71.60;;;;;;5032316;28;20041;-73
2022/06/03 09:49:30;;;;;;;4.55;2.42;;;22.40;69.70;;;;;;5011911;28;20400;-73
2022/06/03 09:51:56;;;;;;;4.38;2.50;;;22.50;71.60;;;;;;5028154;28;20041;-73
2022/06/03 09:54:39;;;;;;;3.95;2.65;;;22.60;70.50;;;;;;5027906;28;20037;-73
2022/06/03 09:57:12;;;;;;;4.70;2.30;;;22.80;70.90;;;;;;5024834;28;20046;-73
2022/06/03 09:59:39;;;;;;;9.65;2.55;;;22.90;69.80;;;;;;5022257;28;20052;-72
2022/06/03 10:02:07;;;;;;;3.78;2.20;;;22.90;71.70;;;;;;5029519;28;20091;-72
2022/06/03 10:04:33;;;;;;;6.95;2.63;;;23.10;68.80;;;;;;5024687;28;20029;-73
2022/06/03 10:07:02;;;;;;;4.45;2.28;;;23.30;67.60;;;;;;5011127;28;20029;-73
2022/06/03 10:17:59;;;;;;;2.63;1.70;;;23.80;64.00;;;;;;5029147;28;20049;-73
2022/06/03 10:20:25;;;;;;;3.83;1.98;;;23.90;64.30;;;;;;5026698;28;20120;-73
2022/06/03 10:22:51;;;;;;;3.42;1.98;;;24.00;63.00;;;;;;5028626;28;20037;-74
2022/06/03 10:25:17;;;;;;;3.42;2.30;;;24.10;64.10;;;;;;5026444;28;20045;-74
2022/06/03 10:27:45;;;;;;;4.65;2.13;;;24.20;61.00;;;;;;5031085;28;20038;-74
2022/06/03 10:30:11;;;;;;;7.03;2.30;;;24.30;63.40;;;;;;5029876;28;20041;-73
2022/06/03 10:32:37;;;;;;;3.53;2.10;;;24.40;61.50;;;;;;5025351;28;20064;-73
2022/06/03 10:35:34;;;;;;;3.45;2.60;;;24.50;58.80;;;;;;5030431;28;20033;-73
2022/06/03 10:38:03;;;;;;;4.65;2.22;;;24.50;59.20;;;;;;5024512;28;20065;-74
2022/06/03 10:40:31;;;;;;;2.25;1.83;;;24.50;60.00;;;;;;5022101;28;20048;-74
2022/06/03 10:43:00;;;;;;;3.15;2.33;;;24.60;58.90;;;;;;5025349;28;20045;-73
2022/06/03 10:45:36;;;;;;;3.95;1.90;;;24.70;59.50;;;;;;5028880;28;20073;-73
2022/06/03 10:48:18;;;;;;;4.30;2.10;;;24.90;59.70;;;;;;5028183;28;20155;-73
2022/06/03 10:50:43;;;;;;;2.78;2.10;;;25.00;56.70;;;;;;5021957;28;20046;-73
2022/06/03 11:01:47;;;;;;;2.92;2.10;;;25.10;56.20;;;;;;5020719;28;20060;-74
2022/06/03 11:04:33;;;;;;;3.58;2.00;;;25.20;56.00;;;;;;5029056;28;20045;-73
2022/06/03 11:07:01;;;;;;;6.50;2.10;;;25.30;55.30;;;;;;5028600;28;20068;-73
2022/06/03 11:09:28;;;;;;;3.50;1.80;;;25.40;56.10;;;;;;5028179;28;20041;-74
2022/06/03 11:12:04;;;;;;;4.70;1.90;;;25.60;55.80;;;;;;5031309;28;20051;-74
2022/06/03 11:14:41;;;;;;;5.10;2.20;;;25.70;54.70;;;;;;5030850;28;20759;-74
2022/06/03 11:17:23;;;;;;;2.65;1.90;;;25.70;51.90;;;;;;5031079;28;20042;-73
2022/06/03 11:19:56;;;;;;;4.75;1.90;;;25.70;54.20;;;;;;5030611;28;20033;-74
2022/06/03 11:22:35;;;;;;;2.70;2.00;;;25.80;52.20;;;;;;5033057;28;20037;-74
2022/06/03 11:25:20;;;;;;;2.25;1.60;;;25.90;52.80;;;;;;5033116;28;20429;-74
2022/06/03 11:28:16;;;;;;;2.58;1.88;;;25.90;53.10;;;;;;5026861;28;20049;-73
2022/06/03 11:30:49;;;;;;;4.10;1.90;;;26.00;52.40;;;;;;5031295;28;20045;-73
2022/06/03 11:33:21;;;;;;;3.03;1.77;;;26.10;52.00;;;;;;5031218;28;20065;-74
2022/06/03 11:35:50;;;;;;;2.67;1.70;;;26.10;52.10;;;;;;5031723;28;20049;-74
2022/06/03 11:38:54;;;;;;;3.20;1.73;;;26.10;52.50;;;;;;5032056;28;20057;-74
2022/06/03 11:41:27;;;;;;;5.18;1.80;;;26.20;51.90;;;;;;5005720;28;20098;-73
2022/06/03 11:44:04;;;;;;;3.90;1.63;;;26.30;51.90;;;;;;5032249;28;20124;-73
2022/06/03 11:47:08;;;;;;;4.25;1.70;;;26.40;52.00;;;;;;5030142;28;20095;-73
2022/06/03 11:49:34;;;;;;;3.95;1.67;;;26.40;50.00;;;;;;5030474;28;20082;-73
2022/06/03 11:52:00;;;;;;;4.32;1.70;;;26.40;50.80;;;;;;5032356;28;20029;-74
2022/06/03 11:54:27;;;;;;;2.70;1.88;;;26.30;50.80;;;;;;5032986;28;20042;-74
2022/06/03 11:56:54;;;;;;;3.00;1.77;;;26.10;49.40;;;;;;5032392;28;20037;-73
2022/06/03 11:59:31;;;;;;;4.90;1.60;;;25.90;49.40;;;;;;5031011;28;20041;-74
2022/06/03 12:02:08;;;;;;;3.47;1.58;;;26.00;50.80;;;;;;5028136;28;20121;-74
2022/06/03 12:04:56;;;;;;;3.85;1.77;;;26.10;50.70;;;;;;5031358;28;20038;-74
2022/06/03 12:07:21;;;;;;;4.68;1.55;;;26.30;50.00;;;;;;5031162;28;20124;-74
2022/06/03 12:10:00;;;;;;;3.20;1.88;;;26.40;51.20;;;;;;5030776;28;20120;-73
2022/06/03 12:15:31;;;;;;;3.50;1.52;;;26.60;49.10;;;;;;5028607;28;20480;-74
2022/06/03 12:17:58;;;;;;;1.83;1.40;;;26.70;49.40;;;;;;5031363;28;20053;-74
2022/06/03 12:20:29;;;;;;;3.63;1.42;;;26.70;48.50;;;;;;5028036;28;20128;-74
2022/06/03 12:22:55;;;;;;;4.93;1.50;;;26.80;49.40;;;;;;5031572;28;20042;-74
2022/06/03 12:25:32;;;;;;;2.20;1.42;;;26.90;49.30;;;;;;5032443;28;20049;-74
2022/06/03 12:28:03;;;;;;;2.53;1.40;;;27.00;47.80;;;;;;5030690;28;20043;-73
2022/06/03 12:30:42;;;;;;;2.72;1.52;;;27.00;49.00;;;;;;5031143;28;20507;-74
2022/06/03 12:33:22;;;;;;;2.03;1.45;;;27.10;48.30;;;;;;5029073;28;20038;-73
2022/06/03 12:35:48;;;;;;;3.83;1.70;;;27.20;48.20;;;;;;5029623;28;20041;-73
2022/06/03 12:38:20;;;;;;;2.60;1.50;;;27.20;47.40;;;;;;5030263;28;20063;-73
2022/06/03 12:40:49;;;;;;;2.50;1.60;;;27.20;49.10;;;;;;5024161;28;20045;-74
2022/06/03 12:43:22;;;;;;;1.92;1.33;;;27.50;47.50;;;;;;5023831;28;20125;-74
2022/06/03 12:46:07;;;;;;;1.77;1.27;;;27.60;47.40;;;;;;5032103;28;20070;-74
2022/06/03 12:48:52;;;;;;;3.60;1.40;;;27.80;46.00;;;;;;5028492;28;20045;-74
2022/06/03 12:51:17;;;;;;;3.10;1.40;;;27.90;45.60;;;;;;5022869;28;20046;-74
2022/06/03 12:53:45;;;;;;;2.28;1.42;;;27.70;44.40;;;;;;5030774;28;20172;-73
2022/06/03 12:56:58;;;;;;;1.40;1.30;;;27.80;46.20;;;;;;5022693;28;20167;-74
2022/06/03 12:59:29;;;;;;;1.38;1.20;;;28.00;47.00;;;;;;4983402;28;20546;-74
2022/06/03 13:02:04;;;;;;;2.78;1.20;;;28.10;45.20;;;;;;5014632;28;20052;-74
2022/06/03 13:04:53;;;;;;;2.15;1.55;;;28.30;45.80;;;;;;5033482;28;20037;-73
2022/06/03 13:07:28;;;;;;;3.20;1.48;;;28.50;44.60;;;;;;5016274;28;20526;-74
2022/06/03 13:09:56;;;;;;;4.10;1.45;;;28.60;46.00;;;;;;5002753;28;20049;-74
2022/06/03 13:12:34;;;;;;;3.55;1.30;;;28.80;45.00;;;;;;5028851;28;20052;-74
2022/06/03 13:15:45;;;;;;;2.00;1.30;;;28.80;45.00;;;;;;5027676;28;20041;-74
2022/06/03 13:18:13;;;;;;;2.25;1.40;;;28.70;43.10;;;;;;5028119;28;20037;-74
2022/06/03 13:20:49;;;;;;;3.40;1.60;;;28.60;42.40;;;;;;5029199;28;20041;-75
2022/06/03 13:23:30;;;;;;;3.63;1.35;;;28.50;43.50;;;;;;5029474;28;20042;-74
2022/06/03 13:26:21;;;;;;;2.25;1.23;;;28.60;43.40;;;;;;5030376;28;20045;-74
2022/06/03 13:29:09;;;;;;;2.63;1.42;;;28.50;42.80;;;;;;5021336;28;20136;-74
2022/06/03 13:31:41;;;;;;;3.22;1.38;;;28.60;42.80;;;;;;5020859;28;20472;-74
2022/06/03 13:34:09;;;;;;;2.15;1.30;;;28.60;42.90;;;;;;5030636;28;20116;-74
2022/06/03 13:36:50;;;;;;;1.55;1.40;;;28.60;44.30;;;;;;5029608;28;20528;-73
2022/06/03 13:39:27;;;;;;;2.40;1.20;;;28.60;43.90;;;;;;5027316;28;20044;-74
2022/06/03 13:45:03;;;;;;;4.05;1.40;;;28.20;43.00;;;;;;5028876;28;20068;-74
2022/06/03 13:47:46;;;;;;;2.25;1.10;;;28.10;43.30;;;;;;5028901;28;20492;-74
2022/06/03 13:50:15;;;;;;;3.00;1.63;;;28.20;43.70;;;;;;5014462;28;20030;-74
2022/06/03 13:52:46;;;;;;;4.15;1.33;;;28.30;43.10;;;;;;5028260;28;20407;-75
2022/06/03 13:55:26;;;;;;;2.72;1.40;;;28.40;43.00;;;;;;5022617;28;20168;-74
2022/06/03 13:58:01;;;;;;;1.67;1.10;;;28.70;44.40;;;;;;5024373;28;20050;-74
2022/06/03 14:00:49;;;;;;;5.03;1.63;;;28.70;42.30;;;;;;5026514;28;20487;-74
2022/06/03 14:03:25;;;;;;;1.10;1.00;;;28.60;42.30;;;;;;5027184;28;20040;-75
2022/06/03 14:05:50;;;;;;;3.60;1.30;;;28.50;43.10;;;;;;5031039;28;20505;-74
2022/06/03 14:08:38;;;;;;;3.60;1.40;;;28.40;43.10;;;;;;5027889;28;20085;-75
2022/06/03 14:11:03;;;;;;;2.50;1.30;;;28.30;43.90;;;;;;5025568;28;20041;-74
2022/06/03 14:13:57;;;;;;;3.67;1.55;;;28.40;42.90;;;;;;5028460;28;20045;-74
2022/06/03 14:16:34;;;;;;;2.90;1.20;;;28.40;42.00;;;;;;5028755;28;20807;-74
2022/06/03 14:19:09;;;;;;;4.05;1.10;;;28.30;43.10;;;;;;5024381;28;20090;-75
2022/06/03 14:21:38;;;;;;;2.72;1.20;;;28.40;43.60;;;;;;5029245;28;20514;-75
2022/06/03 14:24:29;;;;;;;1.90;1.20;;;28.40;42.30;;;;;;5028503;28;20514;-74
2022/06/03 14:26:58;;;;;;;;;;;28.40;43.40;;;;;;5027365;28;20519;-74
2022/06/03 14:29:31;;;;;;;1.98;1.10;;;28.50;44.20;;;;;;5025139;28;19979;-75
2022/06/03 14:32:13;;;;;;;4.10;1.10;;;28.60;43.50;;;;;;5022725;28;20478;-75
2022/06/03 14:34:57;;;;;;;2.20;1.25;;;28.80;42.10;;;;;;5021412;28;20034;-75
2022/06/03 14:37:30;;;;;;;3.13;1.20;;;28.90;42.80;;;;;;5022436;28;20943;-75